Time;durP1;ratioP1;P1;durP2;ratioP2;P2;SDS_P1;SDS_P2;PMS_P1;PMS_P2;Temp;Humidity;BMP_temperature;BMP_pressure;BME280_temperature;BME280_humidity;BME280_pressure;Samples;Min_cycle;Max_cycle;Signal;HPM_P1;HPM_P2
2021/04/13 00:01:20;;;;;;;6.65;2.00;;;17.30;61.90;;;;;;5060677;28;20103;-64
2021/04/13 00:04:08;;;;;;;5.03;2.80;;;17.50;60.90;;;;;;5060784;28;20442;-65
2021/04/13 00:06:50;;;;;;;12.60;2.88;;;17.80;59.00;;;;;;5059682;28;20032;-65
2021/04/13 00:09:22;;;;;;;7.85;2.92;;;18.00;59.00;;;;;;5059826;28;20044;-73
2021/04/13 00:11:53;;;;;;;7.60;2.17;;;18.20;57.10;;;;;;5057693;28;20331;-73
2021/04/13 00:14:25;;;;;;;9.73;1.95;;;18.40;55.60;;;;;;5060984;28;20077;-75
2021/04/13 00:16:55;;;;;;;6.28;1.98;;;18.40;55.40;;;;;;5058584;28;20523;-64
2021/04/13 00:19:58;;;;;;;8.98;2.17;;;18.40;54.80;;;;;;5061678;28;20048;-73
2021/04/13 00:22:25;;;;;;;9.03;2.93;;;18.20;55.00;;;;;;5062863;28;20064;-72
2021/04/13 00:24:54;;;;;;;8.80;1.88;;;18.30;55.10;;;;;;5062685;28;20344;-65
2021/04/13 00:27:27;;;;;;;6.30;2.10;;;18.50;56.00;;;;;;5054191;28;20314;-65
2021/04/13 00:30:29;;;;;;;8.10;1.73;;;18.70;54.90;;;;;;5057150;28;20087;-73
2021/04/13 00:33:04;;;;;;;6.88;1.98;;;18.70;54.90;;;;;;5047724;28;20036;-68
2021/04/13 00:35:35;;;;;;;9.00;2.00;;;18.90;54.20;;;;;;5060182;28;20025;-75
2021/04/13 00:38:22;;;;;;;2.13;1.10;;;19.20;54.40;;;;;;5045183;28;20394;-66
2021/04/13 00:40:52;;;;;;;6.25;1.88;;;19.40;52.30;;;;;;5060157;28;20025;-73
2021/04/13 00:43:24;;;;;;;6.30;1.50;;;19.50;51.00;;;;;;5058950;28;20073;-65
2021/04/13 00:45:53;;;;;;;6.88;2.15;;;19.70;51.90;;;;;;5060164;28;20028;-70
2021/04/13 00:48:32;;;;;;;5.30;2.92;;;19.90;53.30;;;;;;5062649;28;20107;-65
2021/04/13 00:51:31;;;;;;;7.10;2.08;;;20.20;52.50;;;;;;5061542;28;20544;-74
2021/04/13 00:54:08;;;;;;;7.97;3.08;;;20.50;51.10;;;;;;5062247;28;20528;-65
2021/04/13 00:56:36;;;;;;;9.25;3.25;;;20.60;52.10;;;;;;5062753;28;20031;-65
2021/04/13 00:59:05;;;;;;;6.75;2.30;;;20.70;50.50;;;;;;5056222;28;20467;-74
2021/04/13 01:01:36;;;;;;;7.10;2.60;;;20.80;51.10;;;;;;5062164;28;20089;-65
2021/04/13 01:04:21;;;;;;;3.88;1.98;;;20.90;50.00;;;;;;5063673;28;20025;-66
2021/04/13 01:07:07;;;;;;;4.10;1.30;;;20.90;49.70;;;;;;5059587;28;20059;-72
2021/04/13 01:09:44;;;;;;;4.90;1.60;;;21.00;48.20;;;;;;5061312;28;20024;-64
2021/04/13 01:12:21;;;;;;;6.50;1.83;;;20.90;48.90;;;;;;5058045;28;20386;-64
2021/04/13 01:14:49;;;;;;;5.88;2.05;;;21.10;49.10;;;;;;5039166;28;20092;-71
2021/04/13 01:17:17;;;;;;;6.00;1.45;;;21.20;48.50;;;;;;5061910;28;20032;-74
2021/04/13 01:19:56;;;;;;;3.13;1.40;;;21.20;46.00;;;;;;5061051;28;20490;-71
2021/04/13 01:22:53;;;;;;;4.70;1.50;;;21.40;47.30;;;;;;5062836;28;20479;-74
2021/04/13 01:25:23;;;;;;;5.88;1.55;;;21.70;46.60;;;;;;5061983;28;20028;-71
2021/04/13 01:28:08;;;;;;;3.63;1.40;;;21.80;45.50;;;;;;5061020;28;20024;-74
2021/04/13 01:30:52;;;;;;;5.20;1.27;;;22.00;45.20;;;;;;5061591;28;20405;-65
2021/04/13 01:33:39;;;;;;;4.68;1.75;;;22.10;44.30;;;;;;5060471;28;20025;-64
2021/04/13 01:36:21;;;;;;;3.05;1.50;;;22.10;44.40;;;;;;5061704;28;20095;-64
2021/04/13 01:39:05;;;;;;;3.92;1.30;;;22.20;44.60;;;;;;5058582;28;20020;-74
2021/04/13 01:41:45;;;;;;;6.50;2.22;;;22.40;44.70;;;;;;5058699;28;20332;-73
2021/04/13 01:44:17;;;;;;;3.33;1.27;;;22.40;43.70;;;;;;5038980;28;20437;-65
2021/04/13 01:46:45;;;;;;;1.73;1.05;;;22.40;44.00;;;;;;5058778;28;20055;-72
2021/04/13 01:49:15;;;;;;;1.90;0.90;;;22.40;43.40;;;;;;5058895;28;20047;-71
2021/04/13 01:51:43;;;;;;;5.85;1.45;;;22.60;44.20;;;;;;5062353;28;20055;-65
2021/04/13 01:54:15;;;;;;;2.80;1.30;;;22.90;44.10;;;;;;5060348;28;20482;-73
2021/04/13 01:56:50;;;;;;;2.63;1.20;;;23.00;42.30;;;;;;5061467;28;20028;-73
2021/04/13 01:59:31;;;;;;;7.20;2.58;;;22.90;43.00;;;;;;5058471;28;20021;-65
2021/04/13 02:02:00;;;;;;;5.65;2.05;;;22.90;43.10;;;;;;5057948;28;20065;-66
2021/04/13 02:04:32;;;;;;;5.82;2.22;;;23.10;43.20;;;;;;5057607;28;20166;-71
2021/04/13 02:07:18;;;;;;;5.10;1.65;;;23.10;42.10;;;;;;5057945;28;20025;-66
2021/04/13 02:09:50;;;;;;;4.13;1.30;;;23.20;42.40;;;;;;5057006;28;20501;-66
2021/04/13 02:12:29;;;;;;;4.45;1.63;;;23.00;41.50;;;;;;5058606;28;20375;-70
2021/04/13 02:15:06;;;;;;;6.30;1.85;;;23.20;41.80;;;;;;5059293;28;20422;-69
2021/04/13 02:17:58;;;;;;;7.47;3.53;;;23.30;41.00;;;;;;5061300;28;20016;-71
2021/04/13 02:20:37;;;;;;;5.63;2.00;;;23.30;42.20;;;;;;5059770;28;20028;-68
2021/04/13 02:23:06;;;;;;;5.72;1.40;;;23.40;41.20;;;;;;5061279;28;20039;-69
2021/04/13 02:25:37;;;;;;;4.40;1.63;;;23.70;40.90;;;;;;5059928;28;20056;-67
2021/04/13 02:28:06;;;;;;;5.05;1.92;;;23.70;40.30;;;;;;5058559;28;20167;-70
2021/04/13 02:30:46;;;;;;;3.60;1.42;;;23.80;40.40;;;;;;5059103;28;20051;-70
2021/04/13 02:33:25;;;;;;;4.20;2.10;;;23.80;40.50;;;;;;5061633;28;20032;-66
2021/04/13 02:35:53;;;;;;;3.80;1.45;;;23.80;41.50;;;;;;5060350;28;20012;-65
2021/04/13 02:38:29;;;;;;;3.88;1.45;;;23.60;41.00;;;;;;5062769;28;20513;-70
2021/04/13 02:41:10;;;;;;;2.47;1.40;;;23.80;40.90;;;;;;5064302;28;20021;-69
2021/04/13 02:43:43;;;;;;;2.97;1.33;;;23.80;40.40;;;;;;5064565;28;20398;-65
2021/04/13 02:46:23;;;;;;;2.53;1.45;;;23.70;41.40;;;;;;5093283;22;20115;-65
2021/04/13 02:49:18;;;;;;;4.40;1.50;;;23.90;41.30;;;;;;5041615;28;20047;-65
2021/04/13 02:52:00;;;;;;;5.38;1.50;;;24.20;39.70;;;;;;5039617;28;20099;-66
2021/04/13 02:54:40;;;;;;;2.25;1.33;;;24.40;38.90;;;;;;5037527;28;20479;-69
2021/04/13 02:57:27;;;;;;;4.18;1.30;;;24.50;39.20;;;;;;5035854;28;20144;-65
2021/04/13 03:00:07;;;;;;;2.08;1.00;;;24.60;39.20;;;;;;5038769;28;20021;-71
2021/04/13 03:02:54;;;;;;;5.15;1.10;;;24.40;38.40;;;;;;5037479;28;20484;-68
2021/04/13 03:05:28;;;;;;;2.80;1.10;;;24.40;40.30;;;;;;5036991;28;20024;-71
2021/04/13 03:07:58;;;;;;;2.95;1.20;;;24.30;40.10;;;;;;5035805;28;20017;-65
2021/04/13 03:10:43;;;;;;;3.33;1.52;;;24.30;41.00;;;;;;5038701;28;20681;-64
2021/04/13 03:13:16;;;;;;;6.18;1.92;;;24.40;40.50;;;;;;5035999;28;20021;-65
2021/04/13 03:15:52;;;;;;;3.13;0.93;;;24.50;40.20;;;;;;5037451;28;20020;-68
2021/04/13 03:18:27;;;;;;;3.03;1.10;;;24.70;40.40;;;;;;5036514;28;20386;-66
2021/04/13 03:20:59;;;;;;;6.47;1.30;;;24.70;39.10;;;;;;5037686;28;20013;-70
2021/04/13 03:23:28;;;;;;;;;;;24.70;41.00;;;;;;5038355;28;20484;-65
2021/04/13 03:26:02;;;;;;;5.93;1.30;;;24.90;39.90;;;;;;5037142;28;19913;-70
2021/04/13 03:28:42;;;;;;;4.57;1.38;;;24.80;39.40;;;;;;5040040;28;20048;-69
2021/04/13 03:31:11;;;;;;;2.17;1.30;;;24.80;40.90;;;;;;5019066;28;20036;-65
2021/04/13 03:33:39;;;;;;;4.72;1.63;;;24.60;40.30;;;;;;5037487;28;20040;-70
2021/04/13 03:36:16;;;;;;;2.90;1.40;;;24.40;40.30;;;;;;5039009;28;20043;-65
2021/04/13 03:38:47;;;;;;;3.38;1.65;;;24.40;41.30;;;;;;5037920;28;20469;-70
2021/04/13 03:41:19;;;;;;;4.53;1.35;;;24.50;41.10;;;;;;5037429;28;20029;-71
2021/04/13 03:44:00;;;;;;;2.22;1.25;;;24.70;40.10;;;;;;5037270;28;20029;-65
2021/04/13 03:46:36;;;;;;;3.08;1.17;;;25.10;40.70;;;;;;5039247;28;20041;-66
2021/04/13 03:49:08;;;;;;;8.77;1.42;;;25.10;39.10;;;;;;5041107;28;20021;-69
2021/04/13 03:51:42;;;;;;;2.47;1.08;;;25.10;39.40;;;;;;5038976;28;20045;-69
2021/04/13 03:54:32;;;;;;;4.18;1.48;;;25.20;40.00;;;;;;5036461;28;20018;-70
2021/04/13 03:57:00;;;;;;;5.95;1.20;;;25.30;39.90;;;;;;5032095;28;20029;-70
2021/04/13 03:59:34;;;;;;;3.92;1.25;;;25.20;39.10;;;;;;5031255;28;20018;-70
2021/04/13 04:02:01;;;;;;;5.55;1.08;;;25.00;39.90;;;;;;4337632;28;10000666;-70
2021/04/13 04:04:32;;;;;;;5.97;1.45;;;25.00;40.70;;;;;;5033006;28;20566;-69
2021/04/13 04:07:19;;;;;;;3.63;1.00;;;25.20;40.20;;;;;;5021368;28;20047;-68
2021/04/13 04:09:47;;;;;;;3.08;1.30;;;25.20;39.70;;;;;;5027658;28;20025;-65
2021/04/13 04:12:20;;;;;;;4.47;1.35;;;25.20;39.60;;;;;;5027685;28;20018;-65
2021/04/13 04:15:13;;;;;;;2.85;1.30;;;25.10;39.40;;;;;;5029923;28;20570;-72
2021/04/13 04:17:49;;;;;;;;;;;25.40;39.50;;;;;;5027873;28;20021;-69
2021/04/13 04:20:16;;;;;;;9.20;1.55;;;25.50;39.50;;;;;;5011431;28;20024;-67
2021/04/13 04:22:54;;;;;;;2.13;1.00;;;25.70;40.30;;;;;;5029673;28;20243;-69
2021/04/13 04:25:41;;;;;;;5.38;1.33;;;25.80;40.60;;;;;;5027216;28;20484;-72
2021/04/13 04:28:26;;;;;;;4.47;1.30;;;25.90;39.60;;;;;;5027391;28;20131;-75
2021/04/13 04:30:53;;;;;;;6.35;1.65;;;25.90;38.60;;;;;;5028885;28;20120;-70
2021/04/13 04:33:36;;;;;;;3.88;1.00;;;25.90;39.60;;;;;;5028480;28;20028;-75
2021/04/13 04:36:39;;;;;;;3.63;1.17;;;25.80;38.90;;;;;;5031885;28;20039;-75
2021/04/13 04:39:30;;;;;;;9.48;1.80;;;25.80;39.50;;;;;;5033288;28;20029;-69
2021/04/13 04:42:06;;;;;;;5.03;1.70;;;25.70;39.10;;;;;;5020813;28;20078;-76
2021/04/13 04:44:34;;;;;;;3.33;2.13;;;25.70;40.00;;;;;;5032882;28;20519;-77
2021/04/13 04:47:02;;;;;;;5.30;2.13;;;25.70;39.70;;;;;;5036812;28;20080;-71
2021/04/13 04:49:37;;;;;;;4.35;2.05;;;25.80;39.60;;;;;;5032513;28;20028;-73
2021/04/13 04:52:05;;;;;;;6.72;1.52;;;25.60;38.70;;;;;;5018229;28;20387;-73
2021/04/13 04:54:32;;;;;;;4.32;1.23;;;25.50;38.90;;;;;;5032173;28;20431;-70
2021/04/13 04:56:59;;;;;;;4.00;1.75;;;25.40;40.10;;;;;;5034627;28;20029;-71
2021/04/13 04:59:26;;;;;;;5.30;1.30;;;25.40;39.80;;;;;;5030230;28;20125;-71
2021/04/13 05:01:54;;;;;;;3.22;1.73;;;25.40;39.80;;;;;;5030391;28;20079;-76
2021/04/13 05:04:21;;;;;;;3.65;1.02;;;25.50;39.40;;;;;;5033049;28;20396;-70
2021/04/13 05:06:48;;;;;;;3.28;1.10;;;25.70;39.60;;;;;;5031754;28;20076;-69
2021/04/13 05:09:16;;;;;;;3.05;1.17;;;25.70;38.80;;;;;;5030949;28;20029;-71
2021/04/13 05:11:43;;;;;;;3.33;0.98;;;25.80;38.30;;;;;;5015259;28;20525;-72
2021/04/13 05:14:10;;;;;;;2.00;1.10;;;25.70;38.30;;;;;;5032432;28;20021;-72
2021/04/13 05:16:37;;;;;;;3.25;1.10;;;25.70;37.50;;;;;;5034027;28;20113;-73
2021/04/13 05:19:06;;;;;;;3.45;1.42;;;25.60;38.30;;;;;;5031832;28;20025;-70
2021/04/13 05:21:34;;;;;;;5.53;1.13;;;25.60;39.10;;;;;;5033092;28;20029;-70
2021/04/13 05:24:01;;;;;;;6.22;1.23;;;25.50;38.20;;;;;;5035347;28;20059;-72
2021/04/13 05:26:28;;;;;;;4.10;1.05;;;25.60;38.50;;;;;;5035295;28;20087;-73
2021/04/13 05:28:55;;;;;;;3.53;1.50;;;25.70;38.60;;;;;;5041364;28;20029;-72
2021/04/13 05:31:23;;;;;;;2.58;1.08;;;25.80;38.80;;;;;;5031516;28;20056;-71
2021/04/13 05:33:50;;;;;;;6.40;1.38;;;25.90;38.40;;;;;;5030820;28;20029;-73
2021/04/13 05:36:18;;;;;;;3.80;0.95;;;26.00;38.90;;;;;;5031837;28;20104;-69
2021/04/13 05:38:45;;;;;;;3.88;1.10;;;25.90;37.70;;;;;;5031988;28;20108;-68
2021/04/13 05:41:14;;;;;;;3.58;0.90;;;25.90;38.20;;;;;;5035047;28;20450;-72
2021/04/13 05:43:43;;;;;;;6.85;1.13;;;25.80;37.30;;;;;;5043956;28;20053;-73
2021/04/13 05:46:15;;;;;;;2.65;1.33;;;25.60;37.20;;;;;;5034460;28;20037;-74
2021/04/13 05:48:43;;;;;;;3.92;1.27;;;25.50;38.20;;;;;;5035341;28;20083;-72
2021/04/13 05:51:11;;;;;;;4.70;1.33;;;25.60;38.10;;;;;;5039496;28;20017;-70
2021/04/13 05:53:38;;;;;;;5.53;1.17;;;25.50;38.30;;;;;;5032699;28;20021;-73
2021/04/13 05:56:06;;;;;;;2.05;1.00;;;25.50;38.20;;;;;;5036858;28;20315;-71
2021/04/13 05:58:45;;;;;;;2.50;1.13;;;25.70;38.30;;;;;;5032336;28;20037;-69
2021/04/13 06:01:13;;;;;;;4.78;1.50;;;25.90;38.30;;;;;;5037879;28;20025;-71
2021/04/13 06:03:44;;;;;;;3.40;1.23;;;26.10;37.40;;;;;;5030536;28;20033;-73
2021/04/13 06:06:14;;;;;;;4.05;1.50;;;26.10;37.40;;;;;;5036122;28;20292;-70
2021/04/13 06:08:42;;;;;;;3.35;1.05;;;26.10;36.90;;;;;;5037971;28;20514;-69
2021/04/13 06:11:15;;;;;;;1.65;0.95;;;26.10;37.00;;;;;;5038378;28;20025;-75
2021/04/13 06:13:44;;;;;;;3.53;1.33;;;26.30;36.90;;;;;;5032966;28;20027;-72
2021/04/13 06:16:13;;;;;;;4.70;1.38;;;26.40;36.90;;;;;;5029862;28;20472;-70
2021/04/13 06:18:40;;;;;;;5.88;1.50;;;26.50;36.70;;;;;;5032093;28;20357;-74
2021/04/13 06:21:08;;;;;;;4.10;0.93;;;26.50;37.50;;;;;;5032443;28;20380;-73
2021/04/13 06:23:35;;;;;;;5.15;1.10;;;26.70;36.40;;;;;;5031164;28;20036;-69
2021/04/13 06:26:02;;;;;;;2.92;1.35;;;26.80;36.60;;;;;;5029203;28;20030;-70
2021/04/13 06:28:30;;;;;;;3.67;1.00;;;26.80;35.70;;;;;;5026204;28;20483;-70
2021/04/13 06:30:57;;;;;;;3.47;1.10;;;26.70;36.00;;;;;;5012182;28;20034;-69
2021/04/13 06:33:27;;;;;;;5.18;1.27;;;26.70;36.30;;;;;;5032945;28;20021;-68
2021/04/13 06:36:00;;;;;;;3.33;1.20;;;26.80;35.10;;;;;;5032604;28;20108;-71
2021/04/13 06:38:28;;;;;;;3.10;1.10;;;27.00;35.80;;;;;;5029517;28;20566;-68
2021/04/13 06:41:16;;;;;;;2.50;1.20;;;26.90;35.70;;;;;;5029665;28;20068;-75
2021/04/13 06:43:59;;;;;;;2.88;1.40;;;27.00;35.20;;;;;;5030273;28;20068;-67
2021/04/13 06:46:52;;;;;;;3.45;0.85;;;27.30;35.50;;;;;;5025329;28;20124;-76
2021/04/13 06:49:43;;;;;;;3.80;2.33;;;27.10;35.00;;;;;;5031318;28;20029;-69
2021/04/13 06:52:34;;;;;;;6.18;3.85;;;27.00;34.70;;;;;;5029023;28;20456;-69
2021/04/13 06:55:28;;;;;;;2.92;1.52;;;26.90;35.40;;;;;;5026251;28;20025;-72
2021/04/13 06:58:07;;;;;;;3.45;1.92;;;26.90;35.60;;;;;;5024668;28;20387;-68
2021/04/13 07:00:48;;;;;;;6.53;4.05;;;26.70;34.70;;;;;;5027979;28;20443;-69
2021/04/13 07:03:42;;;;;;;3.80;2.00;;;26.40;35.40;;;;;;5023897;28;20384;-69
2021/04/13 07:06:23;;;;;;;4.10;1.63;;;25.80;36.80;;;;;;5029639;28;20466;-74
2021/04/13 07:08:57;;;;;;;5.93;1.42;;;25.60;36.70;;;;;;5026957;28;20495;-73
2021/04/13 07:11:35;;;;;;;3.00;1.05;;;25.30;38.70;;;;;;5027763;28;20315;-72
2021/04/13 07:14:44;;;;;;;3.65;1.08;;;25.00;38.30;;;;;;5029458;28;20428;-69
2021/04/13 07:17:18;;;;;;;4.57;1.27;;;24.90;38.20;;;;;;4991506;28;20189;-69
2021/04/13 07:20:00;;;;;;;1.88;0.80;;;24.60;39.20;;;;;;4997211;28;20042;-72
2021/04/13 07:22:31;;;;;;;4.60;1.15;;;24.20;39.40;;;;;;5017191;28;20051;-72
2021/04/13 07:25:12;;;;;;;2.97;1.05;;;23.90;40.30;;;;;;5031077;28;20413;-73
2021/04/13 07:27:51;;;;;;;2.75;1.10;;;23.50;41.40;;;;;;5033591;28;20521;-71
2021/04/13 07:30:24;;;;;;;4.60;1.20;;;23.10;42.30;;;;;;5035035;28;20390;-68
2021/04/13 07:32:58;;;;;;;2.58;1.13;;;22.50;43.00;;;;;;5039120;28;20368;-73
2021/04/13 07:35:33;;;;;;;6.28;4.10;;;22.00;44.80;;;;;;5033332;28;20555;-74
2021/04/13 07:38:05;;;;;;;6.97;4.53;;;21.60;45.20;;;;;;5028536;28;20071;-72
2021/04/13 07:40:40;;;;;;;5.20;2.78;;;21.30;46.40;;;;;;5032383;28;20040;-68
2021/04/13 07:43:22;;;;;;;6.70;1.85;;;21.00;47.30;;;;;;5030337;28;20476;-70
2021/04/13 07:46:17;;;;;;;4.63;2.05;;;20.70;48.50;;;;;;5033502;28;20039;-68
2021/04/13 07:49:05;;;;;;;5.55;1.67;;;20.60;48.50;;;;;;5035562;28;20033;-72
2021/04/13 07:52:02;;;;;;;3.67;1.48;;;20.40;49.30;;;;;;5035325;28;20021;-70
2021/04/13 07:55:05;;;;;;;5.50;3.00;;;20.20;50.60;;;;;;5031993;28;20112;-74
2021/04/13 07:57:57;;;;;;;5.88;1.80;;;20.00;52.50;;;;;;5034816;28;20032;-70
2021/04/13 08:00:36;;;;;;;3.33;1.90;;;19.70;54.80;;;;;;5032406;28;20055;-72
2021/04/13 08:03:27;;;;;;;5.53;1.85;;;19.60;56.20;;;;;;5033107;28;20056;-74
2021/04/13 08:05:58;;;;;;;5.95;2.22;;;19.50;57.10;;;;;;5033735;28;20061;-69
2021/04/13 08:08:41;;;;;;;4.97;1.60;;;19.40;58.10;;;;;;5034830;28;20028;-71
2021/04/13 08:11:17;;;;;;;;;;;19.20;59.90;;;;;;5031725;28;20744;-69
2021/04/13 08:13:51;;;;;;;7.63;5.45;;;19.10;60.70;;;;;;5034649;28;19936;-74
2021/04/13 08:16:29;;;;;;;2.92;1.38;;;19.00;61.70;;;;;;5033885;28;20021;-73
2021/04/13 08:19:26;;;;;;;6.75;2.75;;;18.90;62.70;;;;;;5029760;28;20488;-70
2021/04/13 08:22:16;;;;;;;5.63;2.45;;;18.70;63.80;;;;;;5036053;28;20092;-74
2021/04/13 08:24:50;;;;;;;4.50;1.83;;;18.60;64.50;;;;;;5031943;28;20029;-69
2021/04/13 08:27:38;;;;;;;5.07;2.08;;;18.50;65.10;;;;;;5034346;28;20742;-70
2021/04/13 08:30:46;;;;;;;7.57;2.15;;;18.40;65.90;;;;;;5013137;28;20018;-73
2021/04/13 08:33:33;;;;;;;4.85;2.22;;;18.30;66.50;;;;;;5021640;28;20048;-69
2021/04/13 08:36:33;;;;;;;5.85;2.05;;;18.10;67.00;;;;;;5022021;28;20752;-68
2021/04/13 08:39:12;;;;;;;7.22;1.90;;;18.00;68.00;;;;;;5034274;28;20025;-74
2021/04/13 08:41:49;;;;;;;4.97;1.92;;;18.00;68.00;;;;;;5032157;28;20029;-71
2021/04/13 08:44:25;;;;;;;11.38;2.22;;;17.90;68.60;;;;;;5032124;28;20029;-74
2021/04/13 08:46:54;;;;;;;5.30;2.03;;;17.80;68.80;;;;;;5033056;28;20099;-71
2021/04/13 08:49:34;;;;;;;4.85;1.73;;;17.80;69.60;;;;;;5034450;28;20109;-72
2021/04/13 08:52:16;;;;;;;6.50;2.15;;;17.80;69.80;;;;;;5018144;28;20029;-69
2021/04/13 08:54:49;;;;;;;4.63;1.98;;;17.70;69.90;;;;;;5035259;28;20049;-72
2021/04/13 08:57:32;;;;;;;5.95;2.33;;;17.70;69.90;;;;;;5014030;28;20523;-71
2021/04/13 09:00:05;;;;;;;6.07;1.50;;;17.50;70.30;;;;;;5033156;28;20109;-68
2021/04/13 09:02:38;;;;;;;4.18;2.17;;;17.40;71.10;;;;;;5034441;28;20083;-70
2021/04/13 09:05:08;;;;;;;;;;;17.20;71.90;;;;;;5031958;28;20033;-71
2021/04/13 09:07:47;;;;;;;8.40;1.88;;;17.00;72.70;;;;;;5035656;28;19916;-69
2021/04/13 09:10:34;;;;;;;3.80;1.73;;;16.90;72.90;;;;;;5018309;28;20060;-69
2021/04/13 09:13:19;;;;;;;3.92;1.83;;;16.80;73.80;;;;;;5015271;28;20022;-71
2021/04/13 09:15:59;;;;;;;9.20;2.10;;;16.70;74.30;;;;;;5019230;28;20029;-70
2021/04/13 09:18:56;;;;;;;7.82;2.08;;;16.60;74.40;;;;;;5014387;28;20026;-70
2021/04/13 09:21:26;;;;;;;4.80;1.90;;;16.50;74.80;;;;;;5019091;28;20033;-70
2021/04/13 09:24:21;;;;;;;6.80;2.10;;;16.50;75.20;;;;;;5019365;28;20022;-68
2021/04/13 09:27:21;;;;;;;7.00;2.25;;;16.40;75.50;;;;;;5016710;28;20041;-71
2021/04/13 09:29:51;;;;;;;5.60;2.15;;;16.40;75.40;;;;;;5015941;28;20025;-71
2021/04/13 09:32:30;;;;;;;7.00;2.38;;;16.40;75.60;;;;;;5018562;28;20029;-68
2021/04/13 09:35:07;;;;;;;5.68;2.20;;;16.40;75.80;;;;;;5020267;28;20021;-71
2021/04/13 09:38:09;;;;;;;7.70;2.17;;;16.30;75.80;;;;;;5013187;28;20029;-65
2021/04/13 09:40:44;;;;;;;8.23;2.20;;;16.50;77.80;;;;;;5001784;28;20084;-74
2021/04/13 09:43:47;;;;;;;8.13;2.17;;;16.90;76.60;;;;;;5014631;28;20034;-69
2021/04/13 09:46:45;;;;;;;9.18;2.53;;;17.10;75.50;;;;;;5014734;28;20096;-70
2021/04/13 09:49:33;;;;;;;4.25;1.80;;;17.00;75.20;;;;;;5011263;28;20045;-68
2021/04/13 09:52:11;;;;;;;6.30;1.80;;;16.90;74.50;;;;;;5003798;28;20531;-66
2021/04/13 09:54:43;;;;;;;4.65;1.98;;;16.80;74.60;;;;;;5013616;28;20033;-70
2021/04/13 09:57:37;;;;;;;4.18;2.13;;;16.80;75.10;;;;;;5011952;28;20124;-65
2021/04/13 10:00:28;;;;;;;7.43;2.88;;;16.80;74.60;;;;;;5010769;28;20038;-66
2021/04/13 10:03:12;;;;;;;5.45;2.30;;;16.70;74.70;;;;;;5008891;28;20029;-68
2021/04/13 10:05:46;;;;;;;7.63;1.90;;;16.60;75.10;;;;;;5004457;28;20037;-67
2021/04/13 10:08:16;;;;;;;5.78;2.30;;;16.60;75.60;;;;;;5003259;28;20026;-72
2021/04/13 10:11:01;;;;;;;5.40;2.97;;;16.60;75.70;;;;;;5004895;28;20061;-67
2021/04/13 10:13:47;;;;;;;6.68;2.90;;;16.60;75.30;;;;;;5008230;28;20542;-68
2021/04/13 10:16:35;;;;;;;8.27;2.95;;;16.50;75.00;;;;;;5012495;28;20040;-67
2021/04/13 10:19:30;;;;;;;5.68;3.35;;;16.40;75.50;;;;;;5011447;28;20071;-67
2021/04/13 10:22:28;;;;;;;6.50;2.97;;;16.30;75.90;;;;;;4994375;28;20022;-67
2021/04/13 10:25:31;;;;;;;7.57;2.63;;;16.10;77.00;;;;;;5010749;28;20036;-72
2021/04/13 10:28:14;;;;;;;8.18;2.50;;;16.10;76.50;;;;;;4981323;28;20518;-71
2021/04/13 10:31:22;;;;;;;4.88;2.25;;;16.00;77.20;;;;;;5014761;28;20031;-69
2021/04/13 10:34:14;;;;;;;5.55;2.60;;;15.90;77.50;;;;;;5009924;28;20029;-70
2021/04/13 10:37:09;;;;;;;6.60;2.40;;;15.70;77.50;;;;;;5011174;28;20417;-71
2021/04/13 10:40:03;;;;;;;9.00;2.67;;;15.60;77.60;;;;;;5015012;28;20486;-70
2021/04/13 10:42:48;;;;;;;13.48;9.32;;;15.50;78.50;;;;;;5000026;28;20026;-70
2021/04/13 10:45:27;;;;;;;6.60;2.90;;;15.30;78.60;;;;;;5005908;28;20030;-66
2021/04/13 10:48:30;;;;;;;15.98;10.07;;;15.20;79.80;;;;;;5007098;28;20110;-66
2021/04/13 10:51:28;;;;;;;15.93;8.88;;;15.00;80.60;;;;;;4999827;28;20033;-67
2021/04/13 10:54:22;;;;;;;11.00;4.78;;;14.90;80.90;;;;;;5007191;28;20018;-69
2021/04/13 10:56:52;;;;;;;8.85;3.67;;;14.80;81.10;;;;;;5006546;28;20026;-67
2021/04/13 10:59:38;;;;;;;7.63;4.30;;;14.70;81.50;;;;;;5014044;28;20029;-69
2021/04/13 11:02:43;;;;;;;6.70;3.03;;;14.60;81.90;;;;;;5014613;28;20053;-70
2021/04/13 11:05:32;;;;;;;4.65;2.33;;;14.60;82.20;;;;;;5005372;28;20496;-69
2021/04/13 11:08:21;;;;;;;6.18;2.58;;;14.50;82.30;;;;;;5000289;28;20033;-68
2021/04/13 11:11:09;;;;;;;11.73;6.68;;;14.40;82.60;;;;;;5014842;28;20491;-66
2021/04/13 11:14:04;;;;;;;7.05;2.88;;;14.40;82.80;;;;;;5006769;28;20112;-68
2021/04/13 11:17:04;;;;;;;6.80;3.65;;;14.40;82.70;;;;;;5003744;28;20026;-69
2021/04/13 11:19:56;;;;;;;3.70;2.40;;;14.40;82.30;;;;;;5010769;28;20754;-66
2021/04/13 11:22:47;;;;;;;5.40;2.30;;;14.40;82.50;;;;;;5003812;28;20037;-67
2021/04/13 11:25:32;;;;;;;7.88;2.33;;;14.40;82.40;;;;;;5004496;28;20103;-67
2021/04/13 11:28:34;;;;;;;12.60;3.58;;;14.30;82.70;;;;;;5011077;28;20029;-69
2021/04/13 11:31:46;;;;;;;4.55;2.60;;;14.30;82.30;;;;;;5000066;28;20030;-65
2021/04/13 11:34:46;;;;;;;11.88;3.30;;;14.30;82.10;;;;;;5003665;28;20540;-66
2021/04/13 11:37:37;;;;;;;6.97;2.55;;;14.30;82.00;;;;;;5008444;28;20076;-67
2021/04/13 11:40:16;;;;;;;6.95;2.47;;;14.20;82.10;;;;;;5005797;28;20025;-68
2021/04/13 11:42:44;;;;;;;8.82;2.97;;;14.10;82.60;;;;;;5009089;28;20037;-69
2021/04/13 11:45:20;;;;;;;6.57;2.90;;;14.10;82.90;;;;;;5003354;28;20026;-67
2021/04/13 11:48:00;;;;;;;6.68;2.35;;;14.10;82.70;;;;;;5003445;28;20163;-69
2021/04/13 11:50:34;;;;;;;5.80;2.67;;;14.10;83.30;;;;;;5005546;28;20070;-66
2021/04/13 11:53:30;;;;;;;10.65;3.53;;;14.00;82.90;;;;;;5003071;28;20025;-67
2021/04/13 11:55:57;;;;;;;7.53;2.40;;;14.00;82.80;;;;;;5001237;28;20065;-68
2021/04/13 11:58:32;;;;;;;6.45;2.33;;;14.00;83.10;;;;;;5004250;28;20030;-67
2021/04/13 12:01:18;;;;;;;4.68;2.42;;;14.00;82.90;;;;;;5005530;28;20041;-66
2021/04/13 12:04:08;;;;;;;6.30;2.50;;;14.00;82.60;;;;;;4992174;28;20497;-69
2021/04/13 12:06:50;;;;;;;4.78;2.45;;;14.10;82.20;;;;;;5004967;28;20052;-68
2021/04/13 12:09:41;;;;;;;7.10;2.33;;;14.20;81.50;;;;;;5001741;28;20095;-67
2021/04/13 12:12:33;;;;;;;9.20;2.50;;;14.20;81.30;;;;;;5003666;28;20029;-68
2021/04/13 12:15:20;;;;;;;4.60;2.40;;;14.20;81.30;;;;;;5013979;28;20025;-68
2021/04/13 12:17:52;;;;;;;9.63;3.03;;;14.20;82.20;;;;;;5002160;28;20030;-68
2021/04/13 12:20:26;;;;;;;4.80;2.20;;;14.10;82.60;;;;;;5007159;28;20442;-69
2021/04/13 12:23:02;;;;;;;8.45;2.90;;;14.00;83.20;;;;;;5010151;28;20029;-68
2021/04/13 12:25:51;;;;;;;4.25;2.10;;;14.00;82.60;;;;;;5001622;28;20029;-67
2021/04/13 12:28:19;;;;;;;5.35;2.72;;;14.00;82.40;;;;;;5003446;28;20057;-67
2021/04/13 12:30:47;;;;;;;8.63;2.60;;;14.10;82.10;;;;;;5017014;28;20029;-68
2021/04/13 12:33:34;;;;;;;4.25;2.10;;;14.10;81.10;;;;;;5006146;28;20056;-69
2021/04/13 12:36:09;;;;;;;6.40;2.35;;;14.20;80.00;;;;;;5009414;28;20038;-68
2021/04/13 12:38:43;;;;;;;8.38;1.98;;;14.20;79.70;;;;;;5001589;28;20086;-69
2021/04/13 12:41:34;;;;;;;8.00;2.30;;;14.20;79.60;;;;;;5017140;28;20420;-66
2021/04/13 12:44:27;;;;;;;8.98;4.20;;;14.30;79.00;;;;;;5019352;28;20111;-68
2021/04/13 12:46:57;;;;;;;13.35;6.30;;;14.30;78.80;;;;;;4999892;28;20582;-66
2021/04/13 12:49:35;;;;;;;33.72;24.77;;;14.20;78.70;;;;;;5016321;28;20033;-68
2021/04/13 12:52:05;;;;;;;18.60;10.52;;;14.20;78.70;;;;;;5000860;28;20203;-68
2021/04/13 12:54:39;;;;;;;6.63;3.53;;;14.20;78.80;;;;;;5015255;28;20033;-66
2021/04/13 12:57:20;;;;;;;8.20;2.78;;;14.20;78.70;;;;;;5016402;28;20034;-69
2021/04/13 13:00:09;;;;;;;4.85;2.63;;;14.10;79.20;;;;;;5017411;28;20079;-70
2021/04/13 13:02:39;;;;;;;5.45;1.83;;;14.10;80.30;;;;;;5013159;28;20240;-69
2021/04/13 13:05:38;;;;;;;6.28;2.38;;;14.00;79.10;;;;;;5030180;28;20036;-67
2021/04/13 13:08:08;;;;;;;3.35;2.00;;;14.00;78.70;;;;;;5009520;28;20393;-67
2021/04/13 13:10:42;;;;;;;13.50;2.25;;;14.00;78.50;;;;;;5013699;28;20052;-67
2021/04/13 13:13:18;;;;;;;6.13;2.33;;;14.00;78.00;;;;;;5020131;28;20111;-68
2021/04/13 13:15:47;;;;;;;2.67;1.50;;;14.00;78.20;;;;;;4998693;28;20457;-66
2021/04/13 13:18:22;;;;;;;4.28;1.85;;;14.00;78.00;;;;;;5018812;28;20132;-69
2021/04/13 13:21:04;;;;;;;5.45;2.13;;;13.90;78.20;;;;;;5017290;28;20472;-67
2021/04/13 13:23:36;;;;;;;3.65;1.92;;;13.80;78.50;;;;;;5015897;28;20029;-67
2021/04/13 13:26:27;;;;;;;6.70;2.78;;;13.80;78.70;;;;;;5017039;28;20112;-67
2021/04/13 13:28:54;;;;;;;6.40;1.95;;;13.70;79.00;;;;;;5017601;28;20115;-67
2021/04/13 13:31:25;;;;;;;3.35;1.98;;;13.60;79.20;;;;;;5016995;28;20488;-67
2021/04/13 13:33:54;;;;;;;5.40;2.17;;;13.60;79.30;;;;;;5018523;28;20020;-68
2021/04/13 13:36:22;;;;;;;2.97;1.73;;;13.50;79.70;;;;;;5017247;28;20512;-67
2021/04/13 13:38:50;;;;;;;5.22;2.30;;;13.40;80.40;;;;;;5016424;28;20107;-68
2021/04/13 13:41:21;;;;;;;4.15;1.88;;;13.30;80.70;;;;;;5015729;28;20022;-68
2021/04/13 13:43:48;;;;;;;4.75;1.92;;;13.30;80.60;;;;;;5017624;28;20021;-68
2021/04/13 13:46:34;;;;;;;4.30;1.98;;;13.10;81.30;;;;;;5016472;28;20507;-68
2021/04/13 13:49:30;;;;;;;3.40;2.25;;;13.00;81.90;;;;;;5017928;28;20123;-69